Time;durP1;ratioP1;P1;durP2;ratioP2;P2;SDS_P1;SDS_P2;PMS_P1;PMS_P2;Temp;Humidity;BMP_temperature;BMP_pressure;BME280_temperature;BME280_humidity;BME280_pressure;Samples;Min_cycle;Max_cycle;Signal;HPM_P1;HPM_P2
2021/12/18 00:01:26;;;;;;;21.13;13.00;;;8.20;66.20;;;;;;5098853;28;20114;-47
2021/12/18 00:03:52;;;;;;;21.42;12.77;;;8.20;66.10;;;;;;5098776;28;20020;-48
2021/12/18 00:06:19;;;;;;;23.15;13.13;;;8.10;66.00;;;;;;5098606;28;20518;-47
2021/12/18 00:08:45;;;;;;;22.35;14.13;;;8.10;66.30;;;;;;5098736;28;20020;-48
2021/12/18 00:11:12;;;;;;;21.42;12.52;;;8.10;65.50;;;;;;5098479;28;20458;-47
2021/12/18 00:13:38;;;;;;;20.70;12.07;;;8.10;66.90;;;;;;5098386;28;20020;-47
2021/12/18 00:16:04;;;;;;;22.08;13.23;;;8.10;66.60;;;;;;5098618;28;20028;-47
2021/12/18 00:18:31;;;;;;;22.42;13.70;;;8.00;66.60;;;;;;5098046;28;20048;-51
2021/12/18 00:20:59;;;;;;;22.45;13.13;;;8.00;65.70;;;;;;5098270;28;20035;-48
2021/12/18 00:23:26;;;;;;;22.85;13.35;;;8.00;66.40;;;;;;5098084;28;20107;-48
2021/12/18 00:25:52;;;;;;;25.20;14.50;;;8.00;67.10;;;;;;5098142;28;20028;-48
2021/12/18 00:28:18;;;;;;;21.90;13.07;;;8.00;67.20;;;;;;5098211;28;20491;-48
2021/12/18 00:30:44;;;;;;;21.83;12.98;;;8.00;67.30;;;;;;5098217;28;20078;-48
2021/12/18 00:33:11;;;;;;;23.20;13.35;;;8.00;66.90;;;;;;5098057;28;20032;-47
2021/12/18 00:35:37;;;;;;;21.10;11.98;;;8.00;67.20;;;;;;5098280;28;20084;-49
2021/12/18 00:38:05;;;;;;;23.00;13.95;;;8.00;67.40;;;;;;5098199;28;20510;-49
2021/12/18 00:40:43;;;;;;;22.85;13.02;;;8.00;67.30;;;;;;5098192;28;20039;-47
2021/12/18 00:43:27;;;;;;;20.35;13.43;;;8.00;67.00;;;;;;5097942;28;20368;-48
2021/12/18 00:45:53;;;;;;;21.27;13.07;;;7.90;66.80;;;;;;5096589;28;20043;-48
2021/12/18 00:48:19;;;;;;;22.88;12.52;;;7.90;66.60;;;;;;5098130;28;20021;-48
2021/12/18 00:50:45;;;;;;;23.33;13.60;;;7.90;67.00;;;;;;5097874;28;20019;-47
2021/12/18 00:53:11;;;;;;;21.77;13.32;;;7.90;66.50;;;;;;5098010;28;20030;-47
2021/12/18 00:55:38;;;;;;;22.48;14.85;;;7.90;66.50;;;;;;5097660;28;20115;-48
2021/12/18 00:58:04;;;;;;;22.20;13.57;;;7.80;67.30;;;;;;5097535;28;20063;-48
2021/12/18 01:00:30;;;;;;;22.55;14.02;;;7.80;67.50;;;;;;5097677;28;20091;-47
2021/12/18 01:03:00;;;;;;;21.90;13.40;;;7.80;67.70;;;;;;5097665;28;20020;-48
2021/12/18 01:05:27;;;;;;;23.10;13.43;;;7.80;67.40;;;;;;5098157;28;20097;-47
2021/12/18 01:07:56;;;;;;;22.40;14.00;;;7.80;67.10;;;;;;5097964;28;20020;-48
2021/12/18 01:11:19;;;;;;;24.30;14.10;;;7.80;67.40;;;;;;5097441;28;20028;-47
2021/12/18 01:13:17;;;;;;;21.77;13.63;;;7.80;67.40;;;;;;5089073;28;20036;-47
2021/12/18 01:15:50;;;;;;;26.27;14.98;;;7.80;67.50;;;;;;5097322;28;20024;-48
2021/12/18 01:23:44;;;;;;;23.83;14.07;;;7.80;67.60;;;;;;5098056;28;20077;-49
2021/12/18 01:26:10;;;;;;;24.60;14.18;;;7.70;67.40;;;;;;5097647;28;20440;-51
2021/12/18 01:28:37;;;;;;;21.98;13.15;;;7.70;66.80;;;;;;5097840;28;20016;-47
2021/12/18 01:31:03;;;;;;;22.40;14.85;;;7.60;67.50;;;;;;5097424;28;20028;-47
2021/12/18 01:33:30;;;;;;;25.70;14.82;;;7.70;67.60;;;;;;5097181;28;20024;-51
2021/12/18 01:35:59;;;;;;;23.65;14.40;;;7.70;67.70;;;;;;5097231;28;20104;-48
2021/12/18 01:38:25;;;;;;;26.15;15.07;;;7.60;67.80;;;;;;5097597;28;20103;-48
2021/12/18 01:40:51;;;;;;;27.00;15.35;;;7.60;67.80;;;;;;5097274;28;20043;-49
2021/12/18 01:53:38;;;;;;;26.92;16.73;;;7.60;68.80;;;;;;5097025;28;20024;-47
2021/12/18 01:56:05;;;;;;;28.63;17.38;;;7.60;68.40;;;;;;5097328;28;20031;-48
2021/12/18 01:58:31;;;;;;;31.83;19.58;;;7.60;68.80;;;;;;5097082;28;20023;-55
2021/12/18 02:00:58;;;;;;;28.48;16.08;;;7.60;69.10;;;;;;5096862;28;20021;-49
2021/12/18 02:03:25;;;;;;;27.77;16.20;;;7.60;68.60;;;;;;5097417;28;20059;-49
2021/12/18 02:05:52;;;;;;;30.10;16.85;;;7.60;68.50;;;;;;5097398;28;20518;-48
2021/12/18 02:08:23;;;;;;;31.65;18.58;;;7.50;68.40;;;;;;5097491;28;20028;-47
2021/12/18 02:11:12;;;;;;;30.80;17.95;;;7.50;68.60;;;;;;5097094;28;20063;-48
2021/12/18 02:21:40;;;;;;;31.63;18.80;;;7.50;68.50;;;;;;5100372;28;20043;-47
2021/12/18 02:24:06;;;;;;;29.70;18.33;;;7.40;68.80;;;;;;5100539;28;20020;-48
2021/12/18 02:26:32;;;;;;;29.90;18.40;;;7.50;68.50;;;;;;5100527;28;20548;-50
2021/12/18 02:29:00;;;;;;;35.78;18.52;;;7.40;67.80;;;;;;5100743;28;20016;-48
2021/12/18 02:31:27;;;;;;;30.58;18.33;;;7.40;68.30;;;;;;5100520;28;20556;-48
2021/12/18 02:33:53;;;;;;;33.00;18.73;;;7.40;68.60;;;;;;5100323;28;20100;-48
2021/12/18 02:36:23;;;;;;;30.40;18.35;;;7.30;68.70;;;;;;5100130;28;20063;-47
2021/12/18 02:44:01;;;;;;;32.80;18.33;;;7.30;68.50;;;;;;5100488;28;20044;-48
2021/12/18 02:46:28;;;;;;;32.25;18.48;;;7.30;68.70;;;;;;5098912;28;20094;-48
2021/12/18 02:48:55;;;;;;;32.00;18.08;;;7.30;68.50;;;;;;5100156;28;20051;-48
2021/12/18 02:51:21;;;;;;;34.05;20.65;;;7.30;68.70;;;;;;5100015;28;20028;-48
2021/12/18 02:53:50;;;;;;;34.65;18.52;;;7.30;69.30;;;;;;5100001;28;20024;-49
2021/12/18 02:56:18;;;;;;;32.83;18.40;;;7.30;69.40;;;;;;5100118;28;20395;-47
2021/12/18 02:58:46;;;;;;;34.00;18.52;;;7.30;69.50;;;;;;5100124;28;20024;-47
2021/12/18 03:01:16;;;;;;;33.53;20.10;;;7.20;69.40;;;;;;5099821;28;20067;-49
2021/12/18 03:03:43;;;;;;;32.28;18.63;;;7.30;68.60;;;;;;5099579;28;20093;-48
2021/12/18 03:06:33;;;;;;;29.00;17.00;;;7.20;69.40;;;;;;5099687;28;20099;-47
2021/12/18 03:25:11;;;;;;;32.53;18.55;;;7.10;69.30;;;;;;5099232;28;20496;-49
2021/12/18 03:27:37;;;;;;;32.75;18.25;;;7.10;69.20;;;;;;5099373;28;20035;-47
2021/12/18 03:30:05;;;;;;;31.98;19.42;;;7.10;69.40;;;;;;5099289;28;20024;-48
2021/12/18 03:32:30;;;;;;;30.42;18.58;;;7.10;69.70;;;;;;5098575;28;20108;-47
2021/12/18 03:34:56;;;;;;;32.13;19.58;;;7.10;69.10;;;;;;5098965;28;20499;-48
2021/12/18 03:37:22;;;;;;;31.05;18.30;;;7.10;69.20;;;;;;5099095;28;20024;-48
2021/12/18 03:39:48;;;;;;;30.80;17.80;;;7.10;69.40;;;;;;5099489;28;20103;-48
2021/12/18 03:42:15;;;;;;;30.52;17.95;;;7.10;68.80;;;;;;5098938;28;20024;-46
2021/12/18 03:44:41;;;;;;;30.98;17.73;;;7.10;69.30;;;;;;5099072;28;20103;-47
2021/12/18 03:47:08;;;;;;;29.98;18.65;;;7.00;69.20;;;;;;5099119;28;20020;-47
2021/12/18 03:49:34;;;;;;;31.92;18.15;;;7.00;68.40;;;;;;5098951;28;20024;-49
2021/12/18 03:52:00;;;;;;;28.60;16.90;;;7.00;68.50;;;;;;5098927;28;20074;-51
2021/12/18 03:54:25;;;;;;;34.05;18.55;;;7.00;69.80;;;;;;5098793;28;20405;-47
2021/12/18 03:56:52;;;;;;;30.75;18.48;;;7.00;69.90;;;;;;5098986;28;20095;-47
2021/12/18 03:59:18;;;;;;;32.25;18.45;;;7.00;69.50;;;;;;5098717;28;20024;-47
2021/12/18 04:01:44;;;;;;;33.08;18.42;;;7.00;68.90;;;;;;5098832;28;20055;-48
2021/12/18 04:04:10;;;;;;;33.80;18.67;;;7.00;69.10;;;;;;5098631;28;20475;-49
2021/12/18 04:06:39;;;;;;;30.60;17.92;;;7.00;69.20;;;;;;5098614;28;20016;-49
2021/12/18 04:09:06;;;;;;;31.15;18.63;;;7.00;69.10;;;;;;5098969;28;20028;-47
2021/12/18 04:11:32;;;;;;;35.33;18.85;;;6.90;69.20;;;;;;5098719;28;20032;-50
2021/12/18 04:13:58;;;;;;;35.08;19.67;;;6.90;69.40;;;;;;5098698;28;20057;-48
2021/12/18 04:16:24;;;;;;;33.28;18.88;;;6.90;69.60;;;;;;5097303;28;20020;-47
2021/12/18 04:18:50;;;;;;;30.27;18.52;;;6.90;69.70;;;;;;5097349;28;20063;-50
2021/12/18 04:21:16;;;;;;;34.30;18.42;;;6.90;69.40;;;;;;5098288;28;20028;-47
2021/12/18 04:23:42;;;;;;;31.75;18.58;;;6.90;69.20;;;;;;5098653;28;20065;-48
2021/12/18 04:26:08;;;;;;;31.25;18.38;;;6.80;69.50;;;;;;5098427;28;20170;-47
2021/12/18 04:28:34;;;;;;;31.42;18.73;;;6.80;68.70;;;;;;5098349;28;20073;-48
2021/12/18 04:30:59;;;;;;;32.22;19.15;;;6.80;70.30;;;;;;5098629;28;20061;-48
2021/12/18 04:33:26;;;;;;;31.42;19.05;;;6.70;69.40;;;;;;5098526;28;20039;-47
2021/12/18 04:35:52;;;;;;;31.52;18.67;;;6.70;69.40;;;;;;5096847;28;20458;-50
2021/12/18 04:38:18;;;;;;;30.85;18.00;;;6.70;69.60;;;;;;5098035;28;20032;-47
2021/12/18 04:40:44;;;;;;;33.63;18.73;;;6.70;70.10;;;;;;5098268;28;20024;-47
2021/12/18 04:43:10;;;;;;;36.40;19.50;;;6.70;70.00;;;;;;5097537;28;20024;-47
2021/12/18 04:45:36;;;;;;;34.38;18.92;;;6.70;70.00;;;;;;5097855;28;20025;-48
2021/12/18 04:48:02;;;;;;;34.60;19.50;;;6.70;70.20;;;;;;5097793;28;20024;-47
2021/12/18 04:50:28;;;;;;;32.08;19.08;;;6.70;69.80;;;;;;5098008;28;20016;-49
2021/12/18 04:52:54;;;;;;;35.70;20.45;;;6.70;69.80;;;;;;5097950;28;20051;-47
2021/12/18 04:55:20;;;;;;;33.08;19.83;;;6.60;69.80;;;;;;5097867;28;20021;-49
2021/12/18 04:57:46;;;;;;;33.40;19.92;;;6.60;70.30;;;;;;5097727;28;20028;-49
2021/12/18 05:00:15;;;;;;;33.58;19.50;;;6.60;69.90;;;;;;5097903;28;20594;-50
2021/12/18 05:02:43;;;;;;;31.52;19.23;;;6.60;70.20;;;;;;5097878;28;20032;-47
2021/12/18 05:05:14;;;;;;;33.85;20.55;;;6.60;70.40;;;;;;5097869;28;20016;-47
2021/12/18 05:07:41;;;;;;;34.38;18.60;;;6.60;69.70;;;;;;5097780;28;20433;-48
2021/12/18 05:10:10;;;;;;;36.38;19.38;;;6.50;69.80;;;;;;5097689;28;20502;-47
2021/12/18 05:12:37;;;;;;;33.75;19.70;;;6.50;69.70;;;;;;5097596;28;20028;-48
2021/12/18 05:15:04;;;;;;;37.40;20.10;;;6.50;69.80;;;;;;5097405;28;20063;-48
2021/12/18 05:17:30;;;;;;;33.95;19.83;;;6.50;70.00;;;;;;5097692;28;20027;-47
2021/12/18 05:19:55;;;;;;;30.63;19.13;;;6.50;70.10;;;;;;5097261;28;20047;-47
2021/12/18 05:22:21;;;;;;;33.35;18.92;;;6.50;70.20;;;;;;5097488;28;20063;-47
2021/12/18 05:24:47;;;;;;;33.15;18.55;;;6.40;70.00;;;;;;5097290;28;20056;-47
2021/12/18 05:27:13;;;;;;;32.72;18.88;;;6.40;69.80;;;;;;5097103;28;20086;-47
2021/12/18 05:29:39;;;;;;;34.25;19.55;;;6.40;70.50;;;;;;5097581;28;20028;-48
2021/12/18 05:32:05;;;;;;;30.70;17.67;;;6.40;70.10;;;;;;5097586;28;20356;-48
2021/12/18 05:34:36;;;;;;;31.42;18.10;;;6.30;70.40;;;;;;5097277;28;20399;-49
2021/12/18 05:37:17;;;;;;;31.73;18.92;;;6.30;70.20;;;;;;5097290;28;20024;-49
2021/12/18 05:39:44;;;;;;;31.83;18.52;;;6.30;70.30;;;;;;5097327;28;20028;-54
2021/12/18 05:42:10;;;;;;;35.35;19.52;;;6.30;70.10;;;;;;5097370;28;20023;-48
2021/12/18 05:44:36;;;;;;;30.98;19.25;;;6.30;69.90;;;;;;5095940;28;20448;-48
2021/12/18 05:47:03;;;;;;;31.40;18.95;;;6.30;70.60;;;;;;5097403;28;20027;-48
2021/12/18 05:49:28;;;;;;;32.92;19.15;;;6.20;70.40;;;;;;5097423;28;20089;-47
2021/12/18 05:51:54;;;;;;;32.90;17.77;;;6.20;70.60;;;;;;5096980;28;20028;-47
2021/12/18 05:54:20;;;;;;;31.08;17.95;;;6.20;70.40;;;;;;5097793;28;20024;-48
2021/12/18 05:56:46;;;;;;;29.27;18.83;;;6.20;70.20;;;;;;5101480;28;20028;-48
2021/12/18 05:59:11;;;;;;;31.50;19.00;;;6.20;70.90;;;;;;5101080;28;20036;-48
2021/12/18 06:01:37;;;;;;;31.25;18.25;;;6.20;70.20;;;;;;5100516;28;20024;-49
2021/12/18 06:04:03;;;;;;;33.70;18.80;;;6.10;70.20;;;;;;5100962;28;20024;-48
2021/12/18 06:06:30;;;;;;;33.35;17.75;;;6.10;70.50;;;;;;5101439;28;20024;-48
2021/12/18 06:08:56;;;;;;;33.58;19.67;;;6.10;70.20;;;;;;5100809;28;20866;-47
2021/12/18 06:11:23;;;;;;;30.77;17.13;;;6.10;70.20;;;;;;5101046;28;20023;-49
2021/12/18 06:13:51;;;;;;;31.30;17.67;;;6.10;70.60;;;;;;5100668;28;20099;-50
2021/12/18 06:16:18;;;;;;;35.15;19.25;;;6.10;70.00;;;;;;5101029;28;20020;-48
2021/12/18 06:18:45;;;;;;;35.50;18.83;;;6.10;70.50;;;;;;5100522;28;20120;-47
2021/12/18 06:21:13;;;;;;;32.45;17.65;;;6.10;70.10;;;;;;5100568;28;20024;-48
2021/12/18 06:23:43;;;;;;;35.10;19.90;;;6.10;70.50;;;;;;5100806;28;20020;-47
2021/12/18 06:26:09;;;;;;;27.00;16.85;;;6.00;70.10;;;;;;5100535;28;20032;-48
2021/12/18 06:28:35;;;;;;;32.70;18.60;;;6.00;70.40;;;;;;5101263;28;20447;-46
2021/12/18 06:31:01;;;;;;;33.50;18.83;;;6.00;70.50;;;;;;5100695;28;20029;-47
2021/12/18 06:33:28;;;;;;;30.90;17.35;;;6.00;70.40;;;;;;5100244;28;20080;-47
2021/12/18 06:35:54;;;;;;;32.90;18.45;;;6.00;70.20;;;;;;5099416;28;20035;-49
2021/12/18 06:38:20;;;;;;;32.58;17.73;;;6.00;69.70;;;;;;5100333;28;20099;-47
2021/12/18 06:40:46;;;;;;;35.08;18.35;;;6.00;70.30;;;;;;5100915;28;20028;-47
2021/12/18 06:43:11;;;;;;;32.40;17.85;;;6.00;70.20;;;;;;5100358;28;20478;-47
2021/12/18 06:45:37;;;;;;;33.13;19.10;;;6.00;70.30;;;;;;5100408;28;20024;-48
2021/12/18 06:48:04;;;;;;;33.72;17.40;;;5.90;70.70;;;;;;5100131;28;20458;-47
2021/12/18 06:50:30;;;;;;;32.90;17.73;;;5.90;70.00;;;;;;5100116;28;20112;-47
2021/12/18 06:52:56;;;;;;;32.75;17.45;;;5.90;70.20;;;;;;5100015;28;20021;-48
2021/12/18 06:55:22;;;;;;;29.35;18.05;;;5.90;70.30;;;;;;5099686;28;20054;-48
2021/12/18 06:57:48;;;;;;;30.73;17.73;;;5.90;70.20;;;;;;5099917;28;20051;-47
2021/12/18 07:00:15;;;;;;;31.10;18.48;;;5.90;69.90;;;;;;5100057;28;20056;-47
2021/12/18 07:02:42;;;;;;;31.58;18.17;;;5.90;70.60;;;;;;5100354;28;20016;-47
2021/12/18 07:05:09;;;;;;;31.42;18.58;;;5.90;69.80;;;;;;5098246;28;20460;-47
2021/12/18 07:07:35;;;;;;;29.95;17.83;;;5.90;70.20;;;;;;5099751;28;20021;-47
2021/12/18 07:10:02;;;;;;;33.28;18.65;;;5.90;70.00;;;;;;5099742;28;20443;-49
2021/12/18 07:12:28;;;;;;;30.02;16.65;;;5.80;70.40;;;;;;5099614;28;20028;-48
2021/12/18 07:14:54;;;;;;;32.25;18.83;;;5.80;70.20;;;;;;5099843;28;20028;-47
2021/12/18 07:17:19;;;;;;;31.30;17.95;;;5.80;70.20;;;;;;5099533;28;20028;-47
2021/12/18 07:19:45;;;;;;;33.65;18.73;;;5.80;69.90;;;;;;5099207;28;20056;-47
2021/12/18 07:22:11;;;;;;;29.63;18.13;;;5.80;70.20;;;;;;5099411;28;20517;-47
2021/12/18 07:24:36;;;;;;;29.52;18.08;;;5.80;70.70;;;;;;5099391;28;20020;-48
2021/12/18 07:27:02;;;;;;;29.85;17.70;;;5.80;70.40;;;;;;5099386;28;20023;-47
2021/12/18 07:29:28;;;;;;;29.83;17.75;;;5.80;70.80;;;;;;5099516;28;20017;-48
2021/12/18 07:31:54;;;;;;;32.00;17.23;;;5.80;70.40;;;;;;5099455;28;20369;-48
2021/12/18 07:34:20;;;;;;;32.78;18.17;;;5.80;70.30;;;;;;5099636;28;20032;-49
2021/12/18 07:36:46;;;;;;;31.25;18.65;;;5.80;70.80;;;;;;5099626;28;20063;-47
2021/12/18 07:39:12;;;;;;;34.13;19.25;;;5.70;70.70;;;;;;5099139;28;20407;-47
2021/12/18 07:41:39;;;;;;;29.52;17.50;;;5.70;70.70;;;;;;5099579;28;20032;-49
2021/12/18 07:44:06;;;;;;;31.17;18.40;;;5.70;70.80;;;;;;5099056;28;20071;-47
2021/12/18 07:46:34;;;;;;;28.45;16.88;;;5.70;70.40;;;;;;5099168;28;20106;-49
2021/12/18 07:48:59;;;;;;;32.83;19.15;;;5.70;70.60;;;;;;5098905;28;20020;-46
2021/12/18 07:51:26;;;;;;;34.97;19.10;;;5.70;70.80;;;;;;5098923;28;20371;-49
2021/12/18 07:53:52;;;;;;;31.73;18.25;;;5.70;70.30;;;;;;5098857;28;20149;-47
2021/12/18 07:56:19;;;;;;;31.38;18.25;;;5.70;70.60;;;;;;5099104;28;20020;-48
2021/12/18 07:58:45;;;;;;;30.10;18.05;;;5.70;70.30;;;;;;5098666;28;20024;-48
2021/12/18 08:01:11;;;;;;;32.92;18.83;;;5.70;70.60;;;;;;5099215;28;20028;-49
2021/12/18 08:03:37;;;;;;;33.22;18.88;;;5.70;70.80;;;;;;5098600;28;20488;-48
2021/12/18 08:06:03;;;;;;;34.25;19.05;;;5.70;70.60;;;;;;5098969;28;20024;-47
2021/12/18 08:08:29;;;;;;;32.33;19.27;;;5.70;70.60;;;;;;5098972;28;20028;-47
2021/12/18 08:10:55;;;;;;;31.83;18.45;;;5.70;70.60;;;;;;5098602;28;20020;-47
2021/12/18 08:13:21;;;;;;;32.58;18.60;;;5.60;70.60;;;;;;5098823;28;20059;-47
2021/12/18 08:15:47;;;;;;;31.17;18.73;;;5.60;70.50;;;;;;5098913;28;20028;-47
2021/12/18 08:18:13;;;;;;;28.20;17.25;;;5.60;70.60;;;;;;5097576;28;20040;-47
2021/12/18 08:20:39;;;;;;;34.08;19.17;;;5.60;70.40;;;;;;5098342;28;20056;-48
2021/12/18 08:23:05;;;;;;;33.55;17.85;;;5.60;70.70;;;;;;5098045;28;20471;-48
2021/12/18 08:25:32;;;;;;;35.92;19.55;;;5.60;70.70;;;;;;5098425;28;20020;-48
2021/12/18 08:28:00;;;;;;;33.75;18.67;;;5.70;70.40;;;;;;5098485;28;20016;-47
2021/12/18 08:30:30;;;;;;;32.42;18.52;;;5.70;70.90;;;;;;5098397;28;20031;-47
2021/12/18 08:32:58;;;;;;;30.67;16.92;;;5.70;70.70;;;;;;5098168;28;20016;-48
2021/12/18 08:35:26;;;;;;;29.67;18.83;;;5.70;70.70;;;;;;5098036;28;20038;-47
2021/12/18 08:37:52;;;;;;;33.38;19.55;;;5.80;70.90;;;;;;5098016;28;20052;-48
2021/12/18 08:40:18;;;;;;;31.83;17.98;;;5.90;70.70;;;;;;5098253;28;20024;-49
2021/12/18 08:42:44;;;;;;;30.27;18.48;;;5.90;70.40;;;;;;5098079;28;20466;-48
2021/12/18 08:45:11;;;;;;;31.42;18.27;;;6.00;70.50;;;;;;5097955;28;20066;-48
2021/12/18 08:47:38;;;;;;;34.70;19.05;;;6.10;70.50;;;;;;5098082;28;20425;-48
2021/12/18 08:50:06;;;;;;;31.17;19.05;;;6.30;70.50;;;;;;5097242;28;20027;-48
2021/12/18 08:52:32;;;;;;;30.88;17.42;;;6.60;70.30;;;;;;5097428;28;20028;-48
2021/12/18 08:55:02;;;;;;;31.10;18.05;;;6.80;69.90;;;;;;5097566;28;20024;-47
2021/12/18 08:57:27;;;;;;;28.52;18.05;;;7.10;69.40;;;;;;5097448;28;20107;-48
2021/12/18 08:59:53;;;;;;;30.17;19.23;;;7.40;68.90;;;;;;5097802;28;20100;-47
2021/12/18 09:02:19;;;;;;;27.83;18.08;;;7.60;68.40;;;;;;5097718;28;20035;-50
2021/12/18 09:04:45;;;;;;;28.88;16.85;;;7.70;68.20;;;;;;5097551;28;20104;-47
2021/12/18 09:07:11;;;;;;;26.50;17.08;;;7.80;68.20;;;;;;5097584;28;20025;-47
2021/12/18 09:09:38;;;;;;;30.33;19.38;;;8.00;67.70;;;;;;5097462;28;20349;-49
2021/12/18 09:12:05;;;;;;;30.45;18.15;;;8.20;67.50;;;;;;5097267;28;20024;-48
2021/12/18 09:14:31;;;;;;;29.30;18.35;;;8.40;67.30;;;;;;5097626;28;20039;-48
2021/12/18 09:16:56;;;;;;;26.70;16.83;;;8.50;66.90;;;;;;5097401;28;20028;-48
2021/12/18 09:19:22;;;;;;;27.13;17.40;;;8.60;66.60;;;;;;5097339;28;20055;-49
2021/12/18 09:21:48;;;;;;;27.70;17.30;;;8.80;66.60;;;;;;5097248;28;20558;-54
2021/12/18 09:24:14;;;;;;;26.52;17.00;;;9.10;66.40;;;;;;5097433;28;20121;-48
2021/12/18 09:26:39;;;;;;;24.17;16.65;;;9.50;66.10;;;;;;5097516;28;20024;-48
2021/12/18 09:29:05;;;;;;;25.88;17.02;;;9.80;65.70;;;;;;5097507;28;20021;-50
2021/12/18 09:31:31;;;;;;;26.98;17.63;;;10.00;65.00;;;;;;5101883;28;20073;-52
2021/12/18 09:33:56;;;;;;;27.60;17.48;;;10.10;65.20;;;;;;5101691;28;20031;-49
2021/12/18 09:36:22;;;;;;;25.83;17.30;;;10.30;64.70;;;;;;5101457;28;20024;-48
2021/12/18 09:38:48;;;;;;;26.13;16.58;;;10.50;64.00;;;;;;5101485;28;20055;-55
2021/12/18 09:41:14;;;;;;;25.80;17.45;;;10.40;63.90;;;;;;5101242;28;20497;-54
2021/12/18 09:43:40;;;;;;;24.13;15.65;;;10.30;63.70;;;;;;5100659;28;20028;-48
2021/12/18 09:46:11;;;;;;;24.73;16.58;;;10.20;64.00;;;;;;5101375;28;20036;-50
2021/12/18 09:48:39;;;;;;;26.58;18.02;;;10.00;63.60;;;;;;5101636;28;20055;-50
2021/12/18 09:51:11;;;;;;;26.73;17.50;;;9.80;63.90;;;;;;5101129;28;20100;-51
2021/12/18 09:53:39;;;;;;;27.05;17.38;;;9.70;63.90;;;;;;5099892;28;20035;-49
2021/12/18 09:56:07;;;;;;;27.20;16.85;;;9.70;64.30;;;;;;5099508;28;20027;-48
2021/12/18 09:58:33;;;;;;;26.05;16.67;;;9.80;64.00;;;;;;5100065;28;20112;-48
2021/12/18 10:00:59;;;;;;;24.88;16.88;;;10.00;63.90;;;;;;5100236;28;20386;-49
2021/12/18 10:03:51;;;;;;;25.38;16.73;;;10.00;63.70;;;;;;5100068;28;20027;-50
2021/12/18 10:06:43;;;;;;;25.35;16.73;;;10.10;63.80;;;;;;5099186;28;20019;-52
2021/12/18 10:09:09;;;;;;;24.52;15.73;;;10.20;63.40;;;;;;5096640;28;20053;-50
2021/12/18 10:11:48;;;;;;;23.70;15.73;;;10.30;63.70;;;;;;5100828;28;20103;-50
2021/12/18 10:14:14;;;;;;;24.92;17.30;;;10.50;63.50;;;;;;5100918;28;20031;-47
2021/12/18 10:16:52;;;;;;;24.42;16.73;;;11.00;63.60;;;;;;5100951;28;20089;-53
2021/12/18 10:19:25;;;;;;;21.85;14.85;;;11.60;62.80;;;;;;5100358;28;20123;-52
2021/12/18 10:22:00;;;;;;;26.88;16.85;;;12.20;61.50;;;;;;5100615;28;20024;-52
2021/12/18 10:24:29;;;;;;;20.42;14.75;;;12.80;61.80;;;;;;5100111;28;20039;-50
2021/12/18 10:26:54;;;;;;;24.65;16.35;;;13.60;60.50;;;;;;5099719;28;20016;-55
2021/12/18 10:29:34;;;;;;;22.85;15.55;;;14.20;59.60;;;;;;5099737;28;20059;-55
2021/12/18 10:32:08;;;;;;;22.05;15.27;;;15.00;60.10;;;;;;5097622;28;20020;-56
2021/12/18 10:34:33;;;;;;;20.63;15.15;;;15.70;58.30;;;;;;5099907;28;20028;-54
2021/12/18 10:37:17;;;;;;;21.70;15.80;;;16.20;55.20;;;;;;5099687;28;20020;-54
2021/12/18 10:39:56;;;;;;;22.55;16.30;;;16.70;56.40;;;;;;5100500;28;20020;-52
2021/12/18 10:42:28;;;;;;;20.60;15.90;;;17.30;53.80;;;;;;5100070;28;20031;-55
2021/12/18 10:44:55;;;;;;;21.63;15.90;;;17.80;51.70;;;;;;5099922;28;20039;-56
2021/12/18 10:47:21;;;;;;;20.27;15.25;;;18.20;50.00;;;;;;5100274;28;20073;-52
2021/12/18 10:49:46;;;;;;;18.38;14.63;;;18.60;51.70;;;;;;5100141;28;20464;-54
2021/12/18 10:52:12;;;;;;;20.25;15.13;;;18.80;49.70;;;;;;5100043;28;20107;-54
2021/12/18 10:54:38;;;;;;;20.40;16.25;;;19.10;49.90;;;;;;5099949;28;20028;-51
2021/12/18 10:57:04;;;;;;;19.35;16.35;;;19.30;47.80;;;;;;5100061;28;20497;-54
2021/12/18 10:59:36;;;;;;;22.60;17.75;;;19.40;47.60;;;;;;5100159;28;20028;-56
2021/12/18 11:02:12;;;;;;;18.90;15.38;;;19.50;45.60;;;;;;5099912;28;20346;-56
2021/12/18 11:04:39;;;;;;;19.45;15.23;;;19.50;43.80;;;;;;5099065;28;20024;-54
2021/12/18 11:07:29;;;;;;;20.85;15.52;;;19.80;47.30;;;;;;5099222;28;20020;-56
2021/12/18 11:10:21;;;;;;;18.08;14.57;;;20.00;45.40;;;;;;5096245;28;20142;-57
2021/12/18 11:15:31;;;;;;;18.60;15.45;;;20.50;46.30;;;;;;5097844;28;20509;-57
2021/12/18 11:17:58;;;;;;;18.42;15.10;;;20.80;44.50;;;;;;5098893;28;20122;-52
2021/12/18 11:20:24;;;;;;;19.90;15.65;;;21.20;43.50;;;;;;5098716;28;20020;-56
2021/12/18 11:22:52;;;;;;;18.83;15.57;;;21.50;43.70;;;;;;5098807;28;20026;-57
2021/12/18 11:25:20;;;;;;;18.70;15.63;;;21.70;43.60;;;;;;5096124;28;20020;-54
2021/12/18 11:27:48;;;;;;;20.30;15.43;;;21.80;40.70;;;;;;5098619;28;20437;-56
2021/12/18 11:30:17;;;;;;;17.85;14.88;;;22.00;39.80;;;;;;5098529;28;20020;-56
2021/12/18 11:32:45;;;;;;;19.27;15.18;;;22.10;40.90;;;;;;5098544;28;20012;-53
2021/12/18 11:35:14;;;;;;;18.08;14.30;;;22.40;41.00;;;;;;5098320;28;20032;-55
2021/12/18 11:37:59;;;;;;;18.00;14.38;;;22.60;40.50;;;;;;5098648;28;20048;-54
2021/12/18 11:40:30;;;;;;;17.77;14.55;;;22.60;39.60;;;;;;5096932;28;20107;-50
2021/12/18 11:42:56;;;;;;;19.45;15.10;;;22.70;39.10;;;;;;5099004;28;20036;-55
2021/12/18 11:45:31;;;;;;;18.45;14.85;;;22.60;38.20;;;;;;5099143;28;20091;-52
2021/12/18 11:47:59;;;;;;;19.88;15.50;;;22.40;38.20;;;;;;5098725;28;20027;-57
2021/12/18 11:50:34;;;;;;;17.20;14.43;;;22.30;39.00;;;;;;5099085;28;20436;-54
2021/12/18 11:53:01;;;;;;;18.98;15.80;;;22.20;38.30;;;;;;5098059;28;20099;-54
2021/12/18 11:55:31;;;;;;;18.52;14.00;;;22.50;37.50;;;;;;5098342;28;20024;-53
2021/12/18 11:58:00;;;;;;;17.30;14.95;;;22.70;38.40;;;;;;5098708;28;20548;-53
2021/12/18 12:00:55;;;;;;;17.98;14.50;;;22.40;35.70;;;;;;5098883;28;20083;-52
2021/12/18 12:03:42;;;;;;;17.35;14.75;;;22.20;37.80;;;;;;5098579;28;20028;-55
2021/12/18 12:06:38;;;;;;;17.85;14.15;;;22.30;36.30;;;;;;5098330;28;20036;-53
2021/12/18 12:09:15;;;;;;;18.48;14.55;;;22.90;39.20;;;;;;5089267;28;20137;-51
2021/12/18 12:12:04;;;;;;;17.88;14.43;;;23.10;36.40;;;;;;5095629;28;20028;-55
2021/12/18 12:14:33;;;;;;;17.75;14.82;;;23.60;35.90;;;;;;5096944;28;20505;-53
2021/12/18 12:17:00;;;;;;;18.13;14.63;;;24.10;37.00;;;;;;5095251;28;20030;-51
2021/12/18 12:19:49;;;;;;;18.40;14.88;;;24.10;34.70;;;;;;5097449;28;20135;-55
2021/12/18 12:22:45;;;;;;;18.63;14.35;;;23.90;34.40;;;;;;5097403;28;20060;-55
2021/12/18 12:25:15;;;;;;;16.38;13.75;;;24.00;34.70;;;;;;5095237;28;20028;-53
2021/12/18 12:27:43;;;;;;;17.75;15.00;;;24.50;36.20;;;;;;5097430;28;20020;-55
2021/12/18 12:30:25;;;;;;;16.58;13.65;;;24.60;34.20;;;;;;5097526;28;20023;-55
2021/12/18 12:33:02;;;;;;;17.75;14.88;;;24.80;35.10;;;;;;5077696;28;20025;-55
2021/12/18 12:35:28;;;;;;;17.10;14.82;;;24.70;34.90;;;;;;5077725;28;20017;-49
2021/12/18 12:37:55;;;;;;;17.98;13.80;;;24.80;32.40;;;;;;5077869;28;20036;-55
2021/12/18 12:40:35;;;;;;;17.58;13.90;;;24.60;34.40;;;;;;5077582;28;20025;-51
2021/12/18 12:43:14;;;;;;;15.93;12.68;;;24.00;32.10;;;;;;5077806;28;20472;-55
2021/12/18 12:45:42;;;;;;;16.60;13.65;;;23.40;34.40;;;;;;5077781;28;20082;-52
2021/12/18 12:48:08;;;;;;;16.38;13.73;;;23.50;34.50;;;;;;5077644;28;20028;-53
2021/12/18 12:50:35;;;;;;;16.35;13.55;;;23.70;34.00;;;;;;5077702;28;20017;-53
2021/12/18 12:53:05;;;;;;;16.73;13.30;;;23.90;36.10;;;;;;5077552;28;20440;-54
2021/12/18 12:55:43;;;;;;;16.00;13.77;;;24.20;33.40;;;;;;5077468;28;20381;-52
2021/12/18 12:58:21;;;;;;;15.70;13.88;;;24.40;35.50;;;;;;5077639;28;20464;-53
2021/12/18 13:00:54;;;;;;;17.10;13.73;;;24.40;33.70;;;;;;5082097;28;20020;-53
2021/12/18 13:03:23;;;;;;;21.08;14.40;;;24.30;32.70;;;;;;5097269;28;20117;-53
2021/12/18 13:05:55;;;;;;;16.25;13.27;;;24.40;34.70;;;;;;5096958;28;20047;-53
2021/12/18 13:08:23;;;;;;;15.32;13.25;;;24.70;33.70;;;;;;5097814;28;20036;-53
2021/12/18 13:10:52;;;;;;;14.05;12.32;;;24.80;34.60;;;;;;5097711;28;20024;-54
2021/12/18 13:13:21;;;;;;;16.33;13.25;;;24.80;33.80;;;;;;5097713;28;20028;-54
2021/12/18 13:15:54;;;;;;;14.60;12.77;;;24.80;32.60;;;;;;5097096;28;20091;-54
2021/12/18 13:18:40;;;;;;;15.02;12.07;;;24.90;31.00;;;;;;5097418;28;20058;-48
2021/12/18 13:21:14;;;;;;;16.55;12.77;;;24.90;32.40;;;;;;5097519;28;20122;-52
2021/12/18 13:23:47;;;;;;;15.57;12.65;;;25.10;32.50;;;;;;5097427;28;20475;-54
2021/12/18 13:26:28;;;;;;;16.13;13.15;;;25.10;32.20;;;;;;5097771;28;20099;-54
2021/12/18 13:29:07;;;;;;;16.23;13.60;;;25.30;31.40;;;;;;5097399;28;20428;-53